createdAt,value
2022-12-25T00:01:56.262Z,100707.50
2022-12-25T00:04:58.667Z,100713.50
2022-12-25T00:08:00.986Z,100723.84
2022-12-25T00:11:09.440Z,100713.69
2022-12-25T00:14:11.797Z,100725.91
2022-12-25T00:17:14.555Z,100729.00
2022-12-25T00:20:17.225Z,100734.81
2022-12-25T00:23:19.572Z,100730.25
2022-12-25T00:26:22.120Z,100731.91
2022-12-25T00:29:24.363Z,100730.84
2022-12-25T00:32:27.868Z,100759.16
2022-12-25T00:35:30.291Z,100766.97
2022-12-25T00:38:33.696Z,100774.03
2022-12-25T00:41:54.807Z,100763.91
2022-12-25T00:44:57.107Z,100765.16
2022-12-25T00:47:59.624Z,100764.56
2022-12-25T00:51:04.307Z,100766.22
2022-12-25T00:54:06.659Z,100768.06
2022-12-25T00:57:09.064Z,100777.53
2022-12-25T01:00:12.233Z,100784.19
2022-12-25T01:03:14.813Z,100781.69
2022-12-25T01:06:17.377Z,100783.16
2022-12-25T01:09:38.495Z,100764.38
2022-12-25T01:12:42.377Z,100780.50
2022-12-25T01:15:44.714Z,100770.97
2022-12-25T01:18:47.048Z,100765.41
2022-12-25T01:21:49.485Z,100771.78
2022-12-25T01:24:52.184Z,100775.31
2022-12-25T01:27:54.623Z,100776.50
2022-12-25T01:30:57.099Z,100778.59
2022-12-25T01:33:59.367Z,100780.03
2022-12-25T01:37:01.790Z,100776.09
2022-12-25T01:40:05.198Z,100782.75
2022-12-25T01:43:18.864Z,100777.75
2022-12-25T01:46:21.286Z,100798.00
2022-12-25T01:49:25.329Z,100798.19
2022-12-25T01:52:27.501Z,100791.16
2022-12-25T01:55:31.023Z,100775.38
2022-12-25T01:58:33.473Z,100789.31
2022-12-25T02:01:36.395Z,100796.75
2022-12-25T02:04:46.713Z,100794.72
2022-12-25T02:07:49.416Z,100804.69
2022-12-25T02:10:51.768Z,100784.56
2022-12-25T02:13:54.220Z,100790.16
2022-12-25T02:17:35.190Z,100799.00
2022-12-25T02:20:44.307Z,100801.47
2022-12-25T02:24:30.017Z,100796.28
2022-12-25T02:27:38.316Z,100794.28
2022-12-25T02:31:02.228Z,100785.41
2022-12-25T02:34:27.106Z,100791.03
2022-12-25T02:37:53.343Z,100793.69
2022-12-25T02:40:58.652Z,100783.78
2022-12-25T02:44:21.560Z,100791.81
2022-12-25T02:47:54.283Z,100790.63
2022-12-25T02:51:16.336Z,100766.16
2022-12-25T02:54:41.842Z,100798.03
2022-12-25T02:58:06.783Z,100785.59
2022-12-25T03:01:54.682Z,100792.47
2022-12-25T03:05:17.402Z,100792.31
2022-12-25T03:08:27.907Z,100797.22
2022-12-25T03:11:33.396Z,100795.34
2022-12-25T03:14:54.320Z,100790.22
2022-12-25T03:17:59.257Z,100761.47
2022-12-25T03:21:21.885Z,100785.44
2022-12-25T03:24:42.842Z,100788.69
2022-12-25T03:27:47.523Z,100799.84
2022-12-25T03:31:14.134Z,100796.31
2022-12-25T03:34:43.363Z,100803.38
2022-12-25T03:38:13.187Z,100812.03
2022-12-25T03:41:49.174Z,100802.53
2022-12-25T03:45:25.267Z,100804.16
2022-12-25T03:48:47.281Z,100801.00
2022-12-25T03:52:08.353Z,100809.34
2022-12-25T03:55:30.691Z,100815.53
2022-12-25T03:58:52.751Z,100814.75
2022-12-25T04:02:14.057Z,100817.66
2022-12-25T04:05:35.307Z,100830.53
2022-12-25T04:08:56.659Z,100837.25
2022-12-25T04:12:17.705Z,100825.13
2022-12-25T04:15:38.864Z,100827.25
2022-12-25T04:18:59.831Z,100825.56
2022-12-25T04:22:21.569Z,100827.38
2022-12-25T04:25:42.742Z,100823.50
2022-12-25T04:29:03.900Z,100828.03
2022-12-25T04:32:25.653Z,100830.94
2022-12-25T04:35:46.699Z,100824.97
2022-12-25T04:38:49.105Z,100839.88
2022-12-25T04:41:51.532Z,100844.38
2022-12-25T04:44:53.859Z,100843.56
2022-12-25T04:47:56.284Z,100843.78
2022-12-25T04:50:58.737Z,100830.34
2022-12-25T04:54:01.141Z,100838.63
2022-12-25T04:57:03.462Z,100843.59
2022-12-25T05:00:06.811Z,100840.69
2022-12-25T05:03:09.225Z,100849.22
2022-12-25T05:06:11.743Z,100841.75
2022-12-25T05:09:14.133Z,100841.94
2022-12-25T05:12:16.514Z,100840.50
2022-12-25T05:15:19.074Z,100851.25
2022-12-25T05:18:21.636Z,100861.34
2022-12-25T05:21:24.050Z,100860.50
2022-12-25T05:24:27.953Z,100854.91
2022-12-25T05:27:30.269Z,100871.47
2022-12-25T05:30:32.954Z,100879.50
2022-12-25T05:33:35.580Z,100889.25
2022-12-25T05:36:39.494Z,100849.66
2022-12-25T05:39:42.278Z,100887.19
2022-12-25T05:42:44.697Z,100887.38
2022-12-25T05:45:47.094Z,100897.06
2022-12-25T05:48:49.549Z,100891.44
2022-12-25T05:51:51.934Z,100899.72
2022-12-25T05:54:54.226Z,100895.81
2022-12-25T05:57:56.499Z,100904.75
2022-12-25T06:00:59.151Z,100912.63
2022-12-25T06:04:03.613Z,100912.41
2022-12-25T06:07:09.337Z,100912.84
2022-12-25T06:10:11.693Z,100895.84
2022-12-25T06:13:14.337Z,100898.28
2022-12-25T06:16:16.911Z,100919.22
2022-12-25T06:19:22.654Z,100929.78
2022-12-25T06:22:29.766Z,100943.66
2022-12-25T06:25:32.589Z,100945.28
2022-12-25T06:28:35.489Z,100944.44
2022-12-25T06:31:37.953Z,100946.50
2022-12-25T06:34:40.348Z,100942.75
2022-12-25T06:37:42.873Z,100946.69
2022-12-25T06:40:45.318Z,100958.13
2022-12-25T06:43:51.823Z,100963.13
2022-12-25T06:46:54.747Z,100938.75
2022-12-25T06:49:57.076Z,100964.19
2022-12-25T06:52:59.360Z,100958.25
2022-12-25T06:56:16.027Z,100957.22
2022-12-25T06:59:18.351Z,100959.28
2022-12-25T07:02:22.882Z,100939.00
2022-12-25T07:05:25.296Z,100965.09
2022-12-25T07:08:27.552Z,100979.94
2022-12-25T07:11:29.960Z,100984.94
2022-12-25T07:14:32.264Z,101001.88
2022-12-25T07:17:36.233Z,101019.72
2022-12-25T07:20:43.078Z,101025.31
2022-12-25T07:23:52.768Z,101023.00
2022-12-25T07:27:00.915Z,101034.00
2022-12-25T07:30:10.469Z,101046.81
2022-12-25T07:33:14.187Z,101041.25
2022-12-25T07:36:16.523Z,101048.34
2022-12-25T07:39:18.978Z,101055.81
2022-12-25T07:42:25.171Z,101046.66
2022-12-25T07:45:29.980Z,101039.81
2022-12-25T07:48:32.826Z,101049.53
2022-12-25T07:51:35.358Z,101044.59
2022-12-25T07:54:37.743Z,101043.00
2022-12-25T07:57:40.448Z,101031.38
2022-12-25T08:00:42.829Z,101048.78
2022-12-25T08:03:49.840Z,101051.72
2022-12-25T08:06:52.206Z,101054.84
2022-12-25T08:09:54.568Z,101053.66
2022-12-25T08:12:57.263Z,101057.13
2022-12-25T08:16:01.114Z,101055.50
2022-12-25T08:19:03.728Z,101058.44
2022-12-25T08:22:06.343Z,101057.34
2022-12-25T08:25:09.287Z,101064.59
2022-12-25T08:28:11.813Z,101064.94
2022-12-25T08:31:18.256Z,101058.19
2022-12-25T08:34:20.675Z,101039.34
2022-12-25T08:37:23.087Z,101056.78
2022-12-25T08:40:25.892Z,101051.81
2022-12-25T08:43:28.251Z,101058.44
2022-12-25T08:46:30.746Z,101049.56
2022-12-25T08:49:33.230Z,101045.63
2022-12-25T08:52:36.116Z,101038.22
2022-12-25T08:55:38.472Z,101045.28
2022-12-25T08:58:41.129Z,101048.38
2022-12-25T09:01:43.877Z,101045.25
2022-12-25T09:04:47.268Z,101056.03
2022-12-25T09:07:49.831Z,101066.13
2022-12-25T09:10:52.196Z,101062.22
2022-12-25T09:13:54.645Z,101058.28
2022-12-25T09:16:57.038Z,101067.81
2022-12-25T09:19:59.632Z,101077.59
2022-12-25T09:23:01.972Z,101070.53
2022-12-25T09:26:08.735Z,101049.38
2022-12-25T09:29:14.577Z,101067.59
2022-12-25T09:32:19.384Z,101095.59
2022-12-25T09:35:23.892Z,101090.44
2022-12-25T09:38:27.476Z,101092.69
2022-12-25T09:42:02.595Z,101097.06
2022-12-25T09:45:13.816Z,101095.16
2022-12-25T09:48:16.946Z,101089.34
2022-12-25T09:51:20.091Z,101097.22
2022-12-25T09:54:29.108Z,101095.78
2022-12-25T09:57:31.403Z,101097.47
2022-12-25T10:00:44.393Z,101085.47
2022-12-25T10:03:55.632Z,101098.72
2022-12-25T10:07:14.618Z,101096.25
2022-12-25T10:10:28.899Z,101101.00
2022-12-25T10:13:37.012Z,101098.13
2022-12-25T10:17:07.506Z,101097.47
2022-12-25T10:20:15.671Z,101083.19
2022-12-25T10:23:42.573Z,101082.75
2022-12-25T10:26:45.736Z,101080.94
2022-12-25T10:29:50.837Z,101080.09
2022-12-25T10:32:53.892Z,101074.06
2022-12-25T10:35:56.431Z,101078.22
2022-12-25T10:38:59.067Z,101070.91
2022-12-25T10:42:37.987Z,101077.53
2022-12-25T10:45:47.576Z,101087.69
2022-12-25T10:48:52.797Z,101084.59
2022-12-25T10:51:55.156Z,101078.41
2022-12-25T10:54:57.716Z,101078.41
2022-12-25T10:58:02.757Z,101082.97
2022-12-25T11:01:08.741Z,101065.34
2022-12-25T11:04:20.263Z,101085.28
2022-12-25T11:07:26.869Z,101086.50
2022-12-25T11:10:32.080Z,101092.94
2022-12-25T11:13:40.849Z,101089.59
2022-12-25T11:16:43.335Z,101094.59
2022-12-25T11:19:53.111Z,101086.91
2022-12-25T11:22:55.753Z,101059.16
2022-12-25T11:25:58.897Z,101085.66
2022-12-25T11:29:01.546Z,101083.34
2022-12-25T11:32:06.273Z,101076.69
2022-12-25T11:35:14.458Z,101082.88
2022-12-25T11:38:16.898Z,101068.81
2022-12-25T11:41:20.903Z,101076.09
2022-12-25T11:44:40.760Z,101070.66
2022-12-25T11:47:49.763Z,101064.84
2022-12-25T11:50:58.832Z,101065.09
2022-12-25T11:54:19.739Z,101068.81
2022-12-25T11:57:24.597Z,101043.16
2022-12-25T12:00:28.287Z,101074.47
2022-12-25T12:03:38.866Z,101078.63
2022-12-25T12:06:54.547Z,101078.81
2022-12-25T12:10:15.716Z,101071.16
2022-12-25T12:14:02.765Z,101067.22
2022-12-25T12:17:05.497Z,101055.59
2022-12-25T12:20:31.429Z,101055.56
2022-12-25T12:24:17.590Z,101061.81
2022-12-25T12:27:20.062Z,101061.75
2022-12-25T12:30:28.803Z,101052.25
2022-12-25T12:33:35.789Z,101048.97
2022-12-25T12:36:38.095Z,101054.78
2022-12-25T12:39:41.552Z,101055.59
2022-12-25T12:42:50.634Z,101053.31
2022-12-25T12:46:06.685Z,101058.69
2022-12-25T12:49:11.800Z,101056.41
2022-12-25T12:52:31.060Z,101050.63
2022-12-25T12:55:35.702Z,101058.72
2022-12-25T12:58:45.324Z,101071.13
2022-12-25T13:02:03.059Z,101079.66
2022-12-25T13:05:45.425Z,101082.97
2022-12-25T13:09:12.405Z,101071.50
2022-12-25T13:12:15.383Z,101066.47
2022-12-25T13:15:27.183Z,101058.41
2022-12-25T13:18:34.162Z,101040.56
2022-12-25T13:21:37.219Z,101059.28
2022-12-25T13:24:40.107Z,101069.28
2022-12-25T13:27:42.816Z,101077.16
2022-12-25T13:30:47.262Z,101079.88
2022-12-25T13:33:51.246Z,101088.59
2022-12-25T13:36:53.720Z,101097.06
2022-12-25T13:40:07.211Z,101103.69
2022-12-25T13:43:11.398Z,101113.88
2022-12-25T13:46:15.950Z,101100.63
2022-12-25T13:49:31.575Z,101100.19
2022-12-25T13:52:38.815Z,101090.22
2022-12-25T13:55:42.720Z,101085.69
2022-12-25T13:58:47.431Z,101089.16
2022-12-25T14:01:51.505Z,101092.09
2022-12-25T14:04:53.794Z,101092.09
2022-12-25T14:07:58.361Z,101097.91
2022-12-25T14:11:06.362Z,101095.84
2022-12-25T14:14:35.678Z,101097.91
2022-12-25T14:17:38.198Z,101097.47
2022-12-25T14:20:42.835Z,101108.03
2022-12-25T14:23:47.656Z,101111.34
2022-12-25T14:27:03.904Z,101108.25
2022-12-25T14:30:13.360Z,101114.50
2022-12-25T14:33:19.893Z,101113.25
2022-12-25T14:36:22.648Z,101109.09
2022-12-25T14:39:31.053Z,101105.78
2022-12-25T14:42:35.655Z,101110.72
2022-12-25T14:45:38.910Z,101105.34
2022-12-25T14:48:41.402Z,101076.97
2022-12-25T14:51:44.316Z,101090.66
2022-12-25T14:54:59.120Z,101095.84
2022-12-25T14:58:06.452Z,101098.31
2022-12-25T15:01:20.865Z,101079.03
2022-12-25T15:04:23.985Z,101084.41
2022-12-25T15:07:31.136Z,101091.28
2022-12-25T15:13:56.744Z,101094.59
2022-12-25T15:17:01.594Z,101097.47
2022-12-25T15:20:04.353Z,101099.56
2022-12-25T15:23:22.324Z,101095.63
2022-12-25T15:26:26.227Z,101089.22
2022-12-25T15:32:51.655Z,101087.16
2022-12-25T15:35:54.322Z,101077.16
2022-12-25T15:38:56.818Z,101087.53
2022-12-25T15:42:12.145Z,101095.44
2022-12-25T15:45:22.847Z,101108.03
2022-12-25T15:48:25.228Z,101098.50
2022-12-25T15:51:27.777Z,101099.13
2022-12-25T15:54:31.416Z,101108.88
2022-12-25T15:57:35.211Z,101105.38
2022-12-25T16:00:37.487Z,101103.31
2022-12-25T16:03:39.828Z,101116.97
2022-12-25T16:06:42.377Z,101115.72
2022-12-25T16:09:45.295Z,101120.91
2022-12-25T16:12:47.894Z,101114.09
2022-12-25T16:15:50.533Z,101110.72
2022-12-25T16:18:52.882Z,101110.34
2022-12-25T16:21:55.995Z,101102.88
2022-12-25T16:24:58.458Z,101110.34
2022-12-25T16:28:03.219Z,101102.88
2022-12-25T16:31:05.679Z,101105.75
2022-12-25T16:34:08.758Z,101089.81
2022-12-25T16:37:11.344Z,101084.84
2022-12-25T16:40:13.917Z,101086.03
2022-12-25T16:43:21.964Z,101089.97
2022-12-25T16:46:26.438Z,101087.47
2022-12-25T16:49:28.876Z,101077.44
2022-12-25T16:52:32.889Z,101082.28
2022-12-25T16:55:36.899Z,101063.97
2022-12-25T16:58:39.189Z,101076.69
2022-12-25T17:01:45.274Z,101075.84
2022-12-25T17:04:48.421Z,101069.00
2022-12-25T17:07:51.649Z,101059.19
2022-12-25T17:10:54.113Z,101067.09
2022-12-25T17:13:58.791Z,101077.50
2022-12-25T17:17:01.387Z,101052.97
2022-12-25T17:20:04.899Z,101055.44
2022-12-25T17:23:07.356Z,101061.63
2022-12-25T17:26:09.894Z,101045.59
2022-12-25T17:29:17.095Z,101048.69
2022-12-25T17:32:22.631Z,101035.47
2022-12-25T17:35:25.157Z,101016.44
2022-12-25T17:38:29.856Z,101033.81
2022-12-25T17:41:33.493Z,101030.63
2022-12-25T17:44:36.330Z,101036.72
2022-12-25T17:47:38.742Z,101037.63
2022-12-25T17:50:41.782Z,101039.31
2022-12-25T17:53:47.048Z,101028.38
2022-12-25T17:56:49.642Z,101037.75
2022-12-25T17:59:52.065Z,101028.00
2022-12-25T18:02:54.672Z,101039.81
2022-12-25T18:06:00.672Z,101042.59
2022-12-25T18:09:06.344Z,101040.44
2022-12-25T18:12:09.521Z,101045.19
2022-12-25T18:15:13.703Z,101039.56
2022-12-25T18:18:16.126Z,101037.50
2022-12-25T18:21:19.009Z,101018.78
2022-12-25T18:24:21.776Z,100987.97
2022-12-25T18:27:24.695Z,101002.25
2022-12-25T18:30:27.779Z,101007.97
2022-12-25T18:33:30.104Z,101003.63
2022-12-25T18:36:32.640Z,100995.47
2022-12-25T18:39:35.157Z,100984.91
2022-12-25T18:42:40.409Z,100979.47
2022-12-25T18:45:43.337Z,100977.91
2022-12-25T18:48:46.420Z,100973.16
2022-12-25T18:51:49.645Z,100963.56
2022-12-25T18:54:52.014Z,100973.16
2022-12-25T18:57:54.905Z,100974.09
2022-12-25T19:00:57.543Z,100975.69
2022-12-25T19:04:04.988Z,100986.25
2022-12-25T19:07:08.144Z,100983.97
2022-12-25T19:10:10.807Z,100967.66
2022-12-25T19:13:13.264Z,100968.97
2022-12-25T19:16:15.924Z,100959.84
2022-12-25T19:19:21.467Z,100945.53
2022-12-25T19:22:24.080Z,100923.75
2022-12-25T19:25:26.430Z,100927.56
2022-12-25T19:28:31.432Z,100927.84
2022-12-25T19:31:35.348Z,100931.38
2022-12-25T19:34:37.954Z,100924.97
2022-12-25T19:37:40.402Z,100927.13
2022-12-25T19:41:00.568Z,100927.56
2022-12-25T19:44:03.924Z,100901.91
2022-12-25T19:47:06.401Z,100927.81
2022-12-25T19:50:09.187Z,100919.44
2022-12-25T19:53:11.530Z,100911.78
2022-12-25T19:56:14.741Z,100914.81
2022-12-25T19:59:17.100Z,100905.13
2022-12-25T20:02:19.624Z,100906.34
2022-12-25T20:05:22.075Z,100905.13
2022-12-25T20:08:24.800Z,100892.06
2022-12-25T20:11:29.177Z,100891.09
2022-12-25T20:14:31.512Z,100899.56
2022-12-25T20:17:33.891Z,100890.19
2022-12-25T20:20:36.476Z,100891.69
2022-12-25T20:23:39.091Z,100892.34
2022-12-25T20:26:43.555Z,100883.84
2022-12-25T20:29:49.057Z,100854.56
2022-12-25T20:32:51.493Z,100894.41
2022-12-25T20:35:55.248Z,100880.31
2022-12-25T20:38:57.738Z,100871.97
2022-12-25T20:42:00.343Z,100861.94
2022-12-25T20:45:02.991Z,100862.53
2022-12-25T20:48:05.510Z,100859.53
2022-12-25T20:51:19.651Z,100847.00
2022-12-25T20:54:21.971Z,100855.41
2022-12-25T20:57:24.401Z,100817.94
2022-12-25T21:00:26.792Z,100848.00
2022-12-25T21:03:29.338Z,100846.09
2022-12-25T21:06:31.874Z,100839.41
2022-12-25T21:09:34.694Z,100847.91
2022-12-25T21:12:37.241Z,100853.00
2022-12-25T21:15:44.855Z,100848.09
2022-12-25T21:18:47.772Z,100836.88
2022-12-25T21:21:51.101Z,100840.22
2022-12-25T21:24:54.461Z,100834.63
2022-12-25T21:27:59.236Z,100824.28
2022-12-25T21:31:03.876Z,100821.88
2022-12-25T21:34:06.457Z,100815.88
2022-12-25T21:37:08.904Z,100807.47
2022-12-25T21:40:16.352Z,100788.06
2022-12-25T21:43:19.045Z,100780.53
2022-12-25T21:46:21.799Z,100764.28
2022-12-25T21:49:42.939Z,100772.38
2022-12-25T21:52:45.293Z,100769.06
2022-12-25T21:55:58.658Z,100755.84
2022-12-25T21:59:02.259Z,100737.97
2022-12-25T22:02:11.711Z,100729.00
2022-12-25T22:05:34.391Z,100723.28
2022-12-25T22:08:37.000Z,100726.22
2022-12-25T22:11:58.167Z,100723.94
2022-12-25T22:15:06.807Z,100714.91
2022-12-25T22:18:28.341Z,100711.72
2022-12-25T22:21:30.774Z,100707.59
2022-12-25T22:24:33.209Z,100711.09
2022-12-25T22:27:38.247Z,100689.72
2022-12-25T22:30:44.424Z,100689.34
2022-12-25T22:33:46.935Z,100673.38
2022-12-25T22:36:49.314Z,100661.31
2022-12-25T22:39:51.597Z,100646.72
2022-12-25T22:42:55.656Z,100650.16
2022-12-25T22:46:01.755Z,100642.84
2022-12-25T22:49:04.375Z,100624.38
2022-12-25T22:52:10.879Z,100608.63
2022-12-25T22:55:17.247Z,100624.13
2022-12-25T22:58:19.740Z,100626.94
2022-12-25T23:01:22.255Z,100610.84
2022-12-25T23:04:24.697Z,100623.19
2022-12-25T23:07:27.068Z,100615.25
2022-12-25T23:10:29.639Z,100628.66
2022-12-25T23:13:51.163Z,100637.59
2022-12-25T23:16:53.533Z,100637.34
2022-12-25T23:20:15.873Z,100631.06
2022-12-25T23:23:37.172Z,100621.25
2022-12-25T23:26:39.507Z,100604.91
2022-12-25T23:29:42.127Z,100609.91
2022-12-25T23:32:44.700Z,100610.75
2022-12-25T23:35:47.110Z,100603.50
2022-12-25T23:38:49.533Z,100597.19
2022-12-25T23:41:51.997Z,100606.38
2022-12-25T23:44:54.598Z,100598.56
2022-12-25T23:47:56.954Z,100614.81
2022-12-25T23:51:05.957Z,100605.13
2022-12-25T23:54:08.492Z,100604.50
2022-12-25T23:57:10.885Z,100602.13
